createdAt,value
2023-10-08T00:01:56.939Z,0.85
2023-10-08T00:04:27.110Z,0.95
2023-10-08T00:07:00.036Z,1.20
2023-10-08T00:09:36.468Z,0.85
2023-10-08T00:12:06.287Z,1.02
2023-10-08T00:14:44.643Z,1.17
2023-10-08T00:17:15.425Z,0.88
2023-10-08T00:19:45.807Z,1.10
2023-10-08T00:22:19.608Z,1.10
2023-10-08T00:24:56.095Z,1.17
2023-10-08T00:27:25.763Z,1.00
2023-10-08T00:29:55.169Z,1.00
2023-10-08T00:32:24.719Z,1.00
2023-10-08T00:34:54.385Z,1.15
2023-10-08T00:37:28.269Z,0.93
2023-10-08T00:39:58.461Z,1.50
2023-10-08T00:42:29.740Z,1.50
2023-10-08T00:45:02.140Z,1.20
2023-10-08T00:47:35.869Z,0.95
2023-10-08T00:50:09.948Z,1.13
2023-10-08T00:52:58.333Z,1.13
2023-10-08T00:55:30.590Z,1.73
2023-10-08T00:57:59.300Z,1.20
2023-10-08T01:00:34.572Z,1.23
2023-10-08T01:03:12.455Z,1.00
2023-10-08T01:05:49.469Z,1.52
2023-10-08T01:08:24.668Z,1.27
2023-10-08T01:11:02.519Z,1.08
2023-10-08T01:13:37.655Z,1.20
2023-10-08T01:16:10.642Z,1.40
2023-10-08T01:18:44.729Z,1.10
2023-10-08T01:21:27.842Z,1.10
2023-10-08T01:24:03.972Z,1.20
2023-10-08T01:26:34.193Z,1.13
2023-10-08T01:29:08.326Z,1.25
2023-10-08T01:31:38.006Z,1.20
2023-10-08T01:34:08.138Z,1.50
2023-10-08T01:36:37.682Z,0.98
2023-10-08T01:39:11.840Z,1.23
2023-10-08T01:41:42.001Z,1.40
2023-10-08T01:44:11.803Z,1.30
2023-10-08T01:46:42.210Z,1.15
2023-10-08T01:49:15.901Z,1.27
2023-10-08T01:51:49.098Z,1.00
2023-10-08T01:54:22.711Z,1.17
2023-10-08T01:56:52.370Z,1.02
2023-10-08T01:59:21.921Z,1.00
2023-10-08T02:01:56.898Z,1.20
2023-10-08T02:04:26.629Z,1.45
2023-10-08T02:06:56.094Z,1.10
2023-10-08T02:09:28.239Z,1.05
2023-10-08T02:11:58.140Z,1.38
2023-10-08T02:14:31.754Z,1.30
2023-10-08T02:17:04.659Z,1.20
2023-10-08T02:19:34.046Z,1.15
2023-10-08T02:22:04.042Z,1.23
2023-10-08T02:24:35.977Z,1.25
2023-10-08T02:27:06.458Z,1.27
2023-10-08T02:29:36.530Z,1.10
2023-10-08T02:32:06.273Z,1.30
2023-10-08T02:34:37.356Z,1.05
2023-10-08T02:37:07.090Z,1.10
2023-10-08T02:39:42.008Z,1.55
2023-10-08T02:42:11.936Z,1.33
2023-10-08T02:44:43.353Z,1.00
2023-10-08T02:47:14.820Z,1.13
2023-10-08T02:49:46.130Z,1.15
2023-10-08T02:52:16.940Z,1.05
2023-10-08T02:54:48.897Z,1.17
2023-10-08T02:57:18.640Z,1.08
2023-10-08T02:59:47.995Z,1.45
2023-10-08T03:02:20.750Z,1.08
2023-10-08T03:04:52.790Z,1.00
2023-10-08T03:07:33.542Z,1.17
2023-10-08T03:10:18.961Z,1.05
2023-10-08T03:12:51.130Z,1.27
2023-10-08T03:15:30.250Z,0.80
2023-10-08T03:18:09.439Z,1.10
2023-10-08T03:20:44.023Z,0.90
2023-10-08T03:23:35.207Z,1.10
2023-10-08T03:26:18.973Z,1.20
2023-10-08T03:28:58.683Z,1.25
2023-10-08T03:31:45.865Z,1.10
2023-10-08T03:34:16.641Z,1.08
2023-10-08T03:36:48.247Z,1.10
2023-10-08T03:39:20.077Z,1.25
2023-10-08T03:42:08.059Z,0.80
2023-10-08T03:44:39.067Z,1.15
2023-10-08T03:47:12.759Z,0.80
2023-10-08T03:49:46.942Z,1.00
2023-10-08T03:52:16.862Z,1.25
2023-10-08T03:54:50.037Z,1.10
2023-10-08T03:57:27.099Z,0.90
2023-10-08T04:00:00.595Z,0.95
2023-10-08T04:02:41.603Z,0.77
2023-10-08T04:05:24.878Z,1.02
2023-10-08T04:08:18.409Z,1.00
2023-10-08T04:11:06.008Z,1.13
2023-10-08T04:13:45.547Z,1.05
2023-10-08T04:16:19.964Z,1.00
2023-10-08T04:18:51.792Z,1.48
2023-10-08T04:21:22.225Z,1.05
2023-10-08T04:23:54.452Z,1.13
2023-10-08T04:26:25.231Z,1.20
2023-10-08T04:28:59.308Z,1.02
2023-10-08T04:31:29.720Z,1.27
2023-10-08T04:34:02.049Z,1.52
2023-10-08T04:36:33.524Z,1.25
2023-10-08T04:39:06.946Z,0.70
2023-10-08T04:41:43.931Z,0.73
2023-10-08T04:44:17.916Z,1.13
2023-10-08T04:46:53.250Z,0.82
2023-10-08T04:49:33.795Z,0.80
2023-10-08T04:52:06.599Z,1.15
2023-10-08T04:54:41.351Z,1.20
2023-10-08T04:57:16.439Z,1.08
2023-10-08T04:59:51.385Z,1.15
2023-10-08T05:02:35.452Z,0.95
2023-10-08T05:05:23.268Z,0.98
2023-10-08T05:08:18.656Z,1.02
2023-10-08T05:11:00.759Z,0.90
2023-10-08T05:13:36.330Z,0.77
2023-10-08T05:16:22.464Z,1.15
2023-10-08T05:19:10.062Z,1.10
2023-10-08T05:21:52.798Z,1.20
2023-10-08T05:24:29.083Z,0.98
2023-10-08T05:27:23.464Z,1.38
2023-10-08T05:30:12.398Z,1.00
2023-10-08T05:33:07.463Z,0.82
2023-10-08T05:35:51.394Z,0.90
2023-10-08T05:38:35.411Z,0.90
2023-10-08T05:41:29.375Z,0.73
2023-10-08T05:44:11.722Z,0.75
2023-10-08T05:46:48.571Z,0.85
2023-10-08T05:49:33.270Z,1.13
2023-10-08T05:52:15.020Z,1.20
2023-10-08T05:55:11.262Z,0.90
2023-10-08T05:57:40.266Z,0.90
2023-10-08T06:00:23.317Z,1.20
2023-10-08T06:03:04.749Z,1.20
2023-10-08T06:05:44.698Z,0.77
2023-10-08T06:08:15.815Z,0.85
2023-10-08T06:10:57.801Z,0.93
2023-10-08T06:13:46.388Z,0.75
2023-10-08T06:16:32.626Z,0.80
2023-10-08T06:19:01.108Z,0.60
2023-10-08T06:21:33.111Z,1.00
2023-10-08T06:24:02.714Z,1.00
2023-10-08T06:26:35.444Z,1.00
2023-10-08T06:29:19.711Z,1.10
2023-10-08T06:31:52.718Z,1.00
2023-10-08T06:34:24.563Z,1.20
2023-10-08T06:36:57.708Z,1.65
2023-10-08T06:39:34.626Z,1.23
2023-10-08T06:42:02.276Z,0.88
2023-10-08T06:44:31.790Z,1.30
2023-10-08T06:47:01.655Z,1.05
2023-10-08T06:49:32.461Z,1.13
2023-10-08T06:52:05.691Z,1.00
2023-10-08T06:54:36.502Z,1.17
2023-10-08T06:57:06.130Z,1.25
2023-10-08T06:59:35.746Z,1.10
2023-10-08T07:02:05.603Z,1.23
2023-10-08T07:04:35.112Z,1.13
2023-10-08T07:07:10.837Z,0.85
2023-10-08T07:09:40.227Z,1.00
2023-10-08T07:12:15.406Z,0.73
2023-10-08T07:14:44.947Z,0.90
2023-10-08T07:17:21.581Z,0.93
2023-10-08T07:19:52.305Z,0.95
2023-10-08T07:22:30.437Z,1.38
2023-10-08T07:25:00.578Z,1.05
2023-10-08T07:27:38.731Z,1.08
2023-10-08T07:30:11.633Z,1.15
2023-10-08T07:32:41.349Z,1.10
2023-10-08T07:35:25.974Z,1.23
2023-10-08T07:37:58.157Z,1.45
2023-10-08T07:40:30.586Z,1.42
2023-10-08T07:43:09.930Z,1.58
2023-10-08T07:45:39.518Z,1.67
2023-10-08T07:48:11.444Z,1.30
2023-10-08T07:50:45.157Z,1.10
2023-10-08T07:53:19.211Z,1.00
2023-10-08T07:55:51.801Z,0.80
2023-10-08T07:58:22.375Z,0.80
2023-10-08T08:00:57.783Z,1.00
2023-10-08T08:03:27.399Z,1.08
2023-10-08T08:05:56.956Z,1.02
2023-10-08T08:08:29.234Z,1.02
2023-10-08T08:11:04.945Z,0.90
2023-10-08T08:13:34.833Z,0.90
2023-10-08T08:16:10.683Z,1.05
2023-10-08T08:18:41.337Z,1.00
2023-10-08T08:21:15.783Z,0.80
2023-10-08T08:23:49.999Z,0.70
2023-10-08T08:26:30.600Z,0.90
2023-10-08T08:29:01.569Z,1.10
2023-10-08T08:31:32.703Z,0.93
2023-10-08T08:34:04.285Z,0.90
2023-10-08T08:36:39.118Z,1.20
2023-10-08T08:39:11.747Z,0.75
2023-10-08T08:41:41.414Z,0.85
2023-10-08T08:44:11.607Z,0.60
2023-10-08T08:46:41.737Z,1.08
2023-10-08T08:49:12.697Z,0.70
2023-10-08T08:51:42.527Z,0.80
2023-10-08T08:54:16.221Z,1.08
2023-10-08T08:56:48.014Z,1.00
2023-10-08T08:59:18.687Z,1.00
2023-10-08T09:01:49.335Z,0.75
2023-10-08T09:04:18.720Z,1.05
2023-10-08T09:06:51.152Z,0.70
2023-10-08T09:09:26.973Z,0.98
2023-10-08T09:11:59.113Z,0.70
2023-10-08T09:14:30.865Z,0.40
2023-10-08T09:17:00.820Z,1.00
2023-10-08T09:19:30.762Z,0.68
2023-10-08T09:22:05.928Z,0.60
2023-10-08T09:24:40.506Z,0.85
2023-10-08T09:27:15.507Z,0.50
2023-10-08T09:29:45.617Z,0.70
2023-10-08T09:32:24.866Z,0.47
2023-10-08T09:34:55.972Z,0.30
2023-10-08T09:37:25.342Z,0.70
2023-10-08T09:39:58.448Z,0.50
2023-10-08T09:42:28.355Z,0.68
2023-10-08T09:44:57.715Z,0.95
2023-10-08T09:47:30.582Z,0.80
2023-10-08T09:50:08.795Z,0.60
2023-10-08T09:52:44.353Z,0.80
2023-10-08T09:55:16.642Z,0.88
2023-10-08T09:57:46.031Z,0.90
2023-10-08T10:00:20.227Z,0.95
2023-10-08T10:02:50.930Z,0.43
2023-10-08T10:05:25.615Z,0.40
2023-10-08T10:07:58.861Z,0.88
2023-10-08T10:10:36.463Z,0.82
2023-10-08T10:13:09.258Z,0.50
2023-10-08T10:15:40.225Z,0.60
2023-10-08T10:18:17.262Z,0.73
2023-10-08T10:20:49.697Z,0.77
2023-10-08T10:23:41.513Z,0.70
2023-10-08T10:26:35.435Z,0.60
2023-10-08T10:29:23.731Z,0.52
2023-10-08T10:31:54.998Z,0.68
2023-10-08T10:34:28.112Z,0.68
2023-10-08T10:37:09.804Z,0.63
2023-10-08T10:39:41.160Z,0.57
2023-10-08T10:42:21.886Z,0.60
2023-10-08T10:44:54.778Z,0.60
2023-10-08T10:47:44.052Z,0.57
2023-10-08T10:50:27.931Z,0.98
2023-10-08T10:52:58.397Z,0.50
2023-10-08T10:55:33.068Z,0.73
2023-10-08T10:58:13.183Z,0.50
2023-10-08T11:00:50.487Z,0.55
2023-10-08T11:03:29.500Z,0.70
2023-10-08T11:06:07.665Z,0.65
2023-10-08T11:08:38.400Z,0.40
2023-10-08T11:11:11.091Z,0.70
2023-10-08T11:13:44.057Z,0.77
2023-10-08T11:16:15.133Z,0.60
2023-10-08T11:18:52.085Z,0.68
2023-10-08T11:21:25.414Z,0.70
2023-10-08T11:24:00.687Z,0.55
2023-10-08T11:26:40.451Z,0.75
2023-10-08T11:29:16.357Z,0.93
2023-10-08T11:31:46.174Z,0.55
2023-10-08T11:34:15.850Z,0.75
2023-10-08T11:36:55.055Z,0.70
2023-10-08T11:39:31.767Z,0.90
2023-10-08T11:42:05.334Z,0.90
2023-10-08T11:44:38.112Z,0.47
2023-10-08T11:47:13.558Z,0.52
2023-10-08T11:49:48.535Z,0.77
2023-10-08T11:52:22.966Z,0.95
2023-10-08T11:54:54.709Z,0.65
2023-10-08T11:57:27.142Z,0.65
2023-10-08T12:00:00.551Z,0.80
2023-10-08T12:02:30.851Z,0.43
2023-10-08T12:05:00.519Z,0.63
2023-10-08T12:07:30.680Z,0.47
2023-10-08T12:10:00.230Z,0.82
2023-10-08T12:12:31.146Z,0.60
2023-10-08T12:15:04.836Z,0.60
2023-10-08T12:17:40.646Z,0.65
2023-10-08T12:20:24.849Z,0.70
2023-10-08T12:22:54.692Z,0.57
2023-10-08T12:25:24.125Z,0.60
2023-10-08T12:27:53.451Z,0.70
2023-10-08T12:30:32.176Z,0.60
2023-10-08T12:33:03.662Z,0.68
2023-10-08T12:35:33.473Z,0.80
2023-10-08T12:38:02.908Z,0.90
2023-10-08T12:40:43.448Z,1.08
2023-10-08T12:43:13.628Z,0.60
2023-10-08T12:45:46.504Z,0.68
2023-10-08T12:48:16.375Z,0.70
2023-10-08T12:50:54.327Z,0.70
2023-10-08T12:53:28.277Z,0.80
2023-10-08T12:55:59.393Z,0.52
2023-10-08T12:58:31.024Z,0.52
2023-10-08T13:01:05.629Z,0.70
2023-10-08T13:03:42.273Z,0.82
2023-10-08T13:06:16.391Z,0.80
2023-10-08T13:08:47.151Z,0.98
2023-10-08T13:11:16.614Z,0.73
2023-10-08T13:13:46.090Z,0.90
2023-10-08T13:16:18.200Z,0.63
2023-10-08T13:18:47.714Z,0.50
2023-10-08T13:21:17.095Z,0.75
2023-10-08T13:23:47.840Z,0.98
2023-10-08T13:26:18.548Z,0.70
2023-10-08T13:28:48.441Z,0.63
2023-10-08T13:31:21.178Z,0.82
2023-10-08T13:33:53.793Z,0.88
2023-10-08T13:36:23.370Z,0.63
2023-10-08T13:38:53.329Z,0.50
2023-10-08T13:41:22.911Z,0.70
2023-10-08T13:43:53.594Z,0.70
2023-10-08T13:46:26.586Z,0.70
2023-10-08T13:48:56.091Z,0.40
2023-10-08T13:51:27.310Z,0.75
2023-10-08T13:54:00.992Z,0.65
2023-10-08T13:56:32.656Z,0.55
2023-10-08T13:59:13.427Z,0.70
2023-10-08T14:01:53.592Z,0.95
2023-10-08T14:04:31.821Z,0.80
2023-10-08T14:07:03.994Z,0.82
2023-10-08T14:09:38.725Z,0.60
2023-10-08T14:12:09.594Z,0.77
2023-10-08T14:14:44.889Z,0.85
2023-10-08T14:17:38.673Z,0.85
2023-10-08T14:20:14.473Z,0.88
2023-10-08T14:22:45.422Z,0.63
2023-10-08T14:25:18.592Z,0.90
2023-10-08T14:27:53.466Z,0.60
2023-10-08T14:30:26.361Z,0.77
2023-10-08T14:32:59.805Z,0.65
2023-10-08T14:35:41.972Z,0.65
2023-10-08T14:38:23.994Z,0.63
2023-10-08T14:41:14.579Z,0.70
2023-10-08T14:43:44.518Z,0.60
2023-10-08T14:46:16.243Z,0.70
2023-10-08T14:48:48.650Z,0.90
2023-10-08T14:51:20.990Z,0.60
2023-10-08T14:53:50.645Z,0.70
2023-10-08T14:56:20.948Z,0.75
2023-10-08T14:58:51.600Z,0.98
2023-10-08T15:01:20.998Z,0.70
2023-10-08T15:03:53.816Z,0.90
2023-10-08T15:06:24.039Z,0.80
2023-10-08T15:08:53.659Z,0.88
2023-10-08T15:11:23.043Z,0.85
2023-10-08T15:13:55.206Z,0.80
2023-10-08T15:16:27.728Z,1.10
2023-10-08T15:18:59.748Z,0.90
2023-10-08T15:21:29.064Z,0.73
2023-10-08T15:23:59.138Z,0.70
2023-10-08T15:26:28.588Z,1.20
2023-10-08T15:28:59.175Z,2.63
2023-10-08T15:31:30.476Z,3.05
2023-10-08T15:34:05.992Z,1.92
2023-10-08T15:36:35.757Z,1.05
2023-10-08T15:39:06.084Z,0.90
2023-10-08T15:41:37.018Z,0.90
2023-10-08T15:44:06.953Z,0.65
2023-10-08T15:46:37.937Z,0.82
2023-10-08T15:49:11.319Z,0.90
2023-10-08T15:51:41.237Z,0.82
2023-10-08T15:54:10.822Z,1.30
2023-10-08T15:56:40.313Z,1.40
2023-10-08T15:59:12.086Z,1.65
2023-10-08T16:01:42.712Z,1.45
2023-10-08T16:04:14.755Z,1.40
2023-10-08T16:06:44.131Z,2.15
2023-10-08T16:09:13.706Z,1.48
2023-10-08T16:11:43.232Z,1.40
2023-10-08T16:14:12.569Z,1.50
2023-10-08T16:16:42.273Z,1.02
2023-10-08T16:19:14.624Z,0.95
2023-10-08T16:21:45.820Z,0.90
2023-10-08T16:24:16.081Z,0.88
2023-10-08T16:26:46.014Z,0.88
2023-10-08T16:29:16.568Z,1.25
2023-10-08T16:31:46.176Z,1.13
2023-10-08T16:34:19.693Z,1.08
2023-10-08T16:36:49.352Z,1.23
2023-10-08T16:39:19.668Z,1.30
2023-10-08T16:41:49.349Z,1.00
2023-10-08T16:44:18.707Z,1.42
2023-10-08T16:46:48.290Z,1.05
2023-10-08T16:49:21.384Z,1.08
2023-10-08T16:51:51.196Z,1.67
2023-10-08T16:54:20.575Z,2.50
2023-10-08T16:56:50.181Z,1.40
2023-10-08T16:59:19.811Z,1.10
2023-10-08T17:01:51.457Z,0.95
2023-10-08T17:04:23.839Z,1.35
2023-10-08T17:06:53.205Z,1.30
2023-10-08T17:09:23.671Z,1.50
2023-10-08T17:11:53.761Z,1.95
2023-10-08T17:14:28.505Z,2.00
2023-10-08T17:17:01.251Z,2.25
2023-10-08T17:19:33.548Z,2.00
2023-10-08T17:22:05.639Z,1.85
2023-10-08T17:24:35.233Z,1.95
2023-10-08T17:27:14.407Z,1.13
2023-10-08T17:29:45.079Z,1.30
2023-10-08T17:32:14.442Z,2.13
2023-10-08T17:34:47.497Z,2.38
2023-10-08T17:37:17.264Z,2.65
2023-10-08T17:39:46.602Z,2.80
2023-10-08T17:42:16.764Z,2.90
2023-10-08T17:44:46.663Z,2.78
2023-10-08T17:47:16.715Z,2.38
2023-10-08T17:49:48.610Z,1.92
2023-10-08T17:52:18.873Z,2.33
2023-10-08T17:54:49.138Z,2.22
2023-10-08T17:57:18.863Z,1.90
2023-10-08T17:59:49.576Z,0.88
2023-10-08T18:02:19.626Z,0.65
2023-10-08T18:04:51.617Z,1.05
2023-10-08T18:07:21.058Z,1.33
2023-10-08T18:09:50.733Z,1.20
2023-10-08T18:12:20.133Z,1.27
2023-10-08T18:14:51.784Z,2.00
2023-10-08T18:17:23.425Z,1.40
2023-10-08T18:19:57.944Z,1.65
2023-10-08T18:22:27.450Z,1.63
2023-10-08T18:24:56.811Z,1.50
2023-10-08T18:27:26.244Z,1.60
2023-10-08T18:29:56.070Z,1.23
2023-10-08T18:32:27.588Z,1.40
2023-10-08T18:35:00.428Z,1.17
2023-10-08T18:37:30.832Z,1.20
2023-10-08T18:40:00.942Z,1.13
2023-10-08T18:42:31.805Z,1.27
2023-10-08T18:45:02.160Z,1.58
2023-10-08T18:47:34.639Z,1.63
2023-10-08T18:50:15.701Z,2.38
2023-10-08T18:52:46.283Z,1.65
2023-10-08T18:55:16.542Z,1.20
2023-10-08T18:57:48.605Z,1.05
2023-10-08T19:00:19.179Z,1.08
2023-10-08T19:02:50.746Z,1.20
2023-10-08T19:05:22.774Z,0.80
2023-10-08T19:07:55.028Z,0.73
2023-10-08T19:10:24.641Z,0.90
2023-10-08T19:12:54.747Z,0.90
2023-10-08T19:15:24.184Z,1.02
2023-10-08T19:17:55.268Z,1.52
2023-10-08T19:20:30.435Z,1.00
2023-10-08T19:22:59.828Z,0.82
2023-10-08T19:25:29.961Z,0.85
2023-10-08T19:28:00.180Z,1.27
2023-10-08T19:30:30.122Z,1.00
2023-10-08T19:32:59.839Z,0.95
2023-10-08T19:35:32.598Z,1.10
2023-10-08T19:38:01.937Z,0.90
2023-10-08T19:40:31.272Z,1.30
2023-10-08T19:43:00.652Z,1.30
2023-10-08T19:45:31.264Z,1.38
2023-10-08T19:48:00.764Z,1.30
2023-10-08T19:50:35.668Z,1.20
2023-10-08T19:53:05.789Z,1.33
2023-10-08T19:55:35.136Z,1.08
2023-10-08T19:58:04.661Z,1.42
2023-10-08T20:00:36.597Z,1.35
2023-10-08T20:03:07.357Z,1.10
2023-10-08T20:05:39.770Z,1.08
2023-10-08T20:08:11.561Z,1.20
2023-10-08T20:10:45.121Z,1.05
2023-10-08T20:13:16.451Z,1.00
2023-10-08T20:15:46.530Z,1.08
2023-10-08T20:18:17.213Z,1.40
2023-10-08T20:20:50.098Z,1.30
2023-10-08T20:23:20.654Z,1.10
2023-10-08T20:25:52.516Z,1.08
2023-10-08T20:28:26.149Z,1.10
2023-10-08T20:30:58.030Z,1.10
2023-10-08T20:33:27.478Z,1.10
2023-10-08T20:35:59.946Z,1.25
2023-10-08T20:38:29.303Z,1.25
2023-10-08T20:40:58.636Z,1.20
2023-10-08T20:43:28.591Z,1.23
2023-10-08T20:45:58.120Z,2.17
2023-10-08T20:48:27.638Z,1.52
2023-10-08T20:51:01.076Z,1.25
2023-10-08T20:53:30.542Z,1.20
2023-10-08T20:56:00.919Z,1.30
2023-10-08T20:58:30.320Z,1.80
2023-10-08T21:01:00.335Z,1.60
2023-10-08T21:03:30.813Z,1.30
2023-10-08T21:06:03.761Z,1.85
2023-10-08T21:08:33.452Z,1.23
2023-10-08T21:11:04.545Z,1.58
2023-10-08T21:13:35.253Z,1.23
2023-10-08T21:16:04.868Z,1.50
2023-10-08T21:18:35.488Z,1.52
2023-10-08T21:21:09.468Z,1.33
2023-10-08T21:23:39.491Z,1.33
2023-10-08T21:26:08.875Z,1.27
2023-10-08T21:28:39.226Z,1.15
2023-10-08T21:31:12.978Z,1.50
2023-10-08T21:33:42.410Z,1.40
2023-10-08T21:36:17.735Z,1.27
2023-10-08T21:38:48.008Z,1.23
2023-10-08T21:41:17.562Z,1.33
2023-10-08T21:43:46.911Z,1.13
2023-10-08T21:46:16.269Z,1.38
2023-10-08T21:48:45.837Z,1.08
2023-10-08T21:51:17.867Z,1.20
2023-10-08T21:53:47.321Z,1.15
2023-10-08T21:56:16.729Z,1.20
2023-10-08T21:58:47.687Z,1.20
2023-10-08T22:01:25.290Z,1.30
2023-10-08T22:03:55.000Z,1.27
2023-10-08T22:06:28.417Z,1.30
2023-10-08T22:08:57.918Z,1.20
2023-10-08T22:11:27.265Z,1.10
2023-10-08T22:13:56.680Z,0.98
2023-10-08T22:16:26.415Z,1.20
2023-10-08T22:18:53.363Z,1.40
2023-10-08T22:21:25.897Z,1.20
2023-10-08T22:23:58.552Z,1.13
2023-10-08T22:26:29.448Z,1.02
2023-10-08T22:28:58.898Z,1.33
2023-10-08T22:31:29.514Z,1.05
2023-10-08T22:34:05.952Z,1.05
2023-10-08T22:36:42.787Z,0.80
2023-10-08T22:39:15.169Z,1.23
2023-10-08T22:41:56.121Z,1.48
2023-10-08T22:44:27.501Z,0.98
2023-10-08T22:47:11.203Z,1.15
2023-10-08T22:49:42.134Z,1.13
2023-10-08T22:52:11.504Z,1.17
2023-10-08T22:54:44.968Z,1.30
2023-10-08T22:57:15.590Z,1.20
2023-10-08T22:59:46.432Z,1.40
2023-10-08T23:02:15.901Z,1.73
2023-10-08T23:04:45.555Z,1.23
2023-10-08T23:07:15.009Z,1.17
2023-10-08T23:09:47.066Z,1.20
2023-10-08T23:12:20.337Z,0.95
2023-10-08T23:14:49.792Z,1.30
2023-10-08T23:17:20.975Z,1.05
2023-10-08T23:19:52.848Z,1.13
2023-10-08T23:22:23.057Z,1.38
2023-10-08T23:24:57.344Z,1.15
2023-10-08T23:27:26.912Z,1.10
2023-10-08T23:29:56.315Z,1.40
2023-10-08T23:32:28.242Z,1.30
2023-10-08T23:35:00.729Z,1.60
2023-10-08T23:37:38.584Z,1.40
2023-10-08T23:40:25.974Z,1.50
2023-10-08T23:43:01.067Z,1.35
2023-10-08T23:45:30.564Z,1.42
2023-10-08T23:48:19.901Z,1.10
2023-10-08T23:50:50.056Z,1.33
2023-10-08T23:53:22.509Z,1.23
2023-10-08T23:56:05.981Z,1.25
2023-10-08T23:58:38.044Z,1.45
